createdAt,value
2023-04-09T00:01:11.085Z,34.83
2023-04-09T00:03:40.441Z,35.07
2023-04-09T00:06:08.765Z,33.27
2023-04-09T00:08:36.897Z,36.40
2023-04-09T00:11:05.826Z,34.27
2023-04-09T00:13:39.232Z,34.93
2023-04-09T00:16:08.700Z,35.10
2023-04-09T00:18:37.268Z,36.13
2023-04-09T00:21:07.187Z,36.00
2023-04-09T00:23:35.853Z,38.70
2023-04-09T00:26:04.136Z,40.70
2023-04-09T00:28:33.773Z,35.90
2023-04-09T00:31:01.992Z,38.43
2023-04-09T00:33:30.461Z,36.23
2023-04-09T00:35:58.702Z,35.07
2023-04-09T00:38:27.072Z,38.23
2023-04-09T00:40:55.210Z,38.60
2023-04-09T00:43:23.364Z,35.17
2023-04-09T00:45:52.985Z,38.90
2023-04-09T00:48:21.986Z,37.07
2023-04-09T00:50:50.173Z,40.23
2023-04-09T00:53:19.194Z,37.47
2023-04-09T00:55:47.571Z,40.03
2023-04-09T00:58:15.834Z,41.93
2023-04-09T01:00:44.003Z,39.47
2023-04-09T01:03:14.505Z,38.23
2023-04-09T01:05:55.359Z,36.77
2023-04-09T01:08:40.066Z,36.40
2023-04-09T01:11:31.555Z,35.53
2023-04-09T01:14:09.743Z,36.53
2023-04-09T01:16:45.833Z,36.40
2023-04-09T01:19:44.430Z,37.10
2023-04-09T01:22:33.780Z,35.33
2023-04-09T01:25:14.513Z,40.20
2023-04-09T01:28:09.024Z,35.53
2023-04-09T01:30:37.902Z,36.40
2023-04-09T01:33:07.997Z,35.70
2023-04-09T01:35:36.237Z,36.50
2023-04-09T01:38:06.180Z,37.40
2023-04-09T01:40:34.508Z,38.97
2023-04-09T01:43:04.330Z,37.43
2023-04-09T01:45:34.781Z,39.13
2023-04-09T01:48:05.509Z,36.43
2023-04-09T01:50:34.826Z,37.50
2023-04-09T01:53:03.749Z,38.27
2023-04-09T01:55:31.853Z,39.93
2023-04-09T01:58:00.268Z,43.57
2023-04-09T02:00:37.659Z,41.33
2023-04-09T02:03:12.454Z,41.70
2023-04-09T02:05:50.220Z,40.33
2023-04-09T02:08:22.930Z,38.23
2023-04-09T02:10:57.714Z,39.80
2023-04-09T02:13:27.188Z,39.30
2023-04-09T02:16:00.677Z,39.97
2023-04-09T02:18:32.489Z,46.27
2023-04-09T02:21:00.988Z,40.27
2023-04-09T02:23:29.269Z,42.63
2023-04-09T02:25:58.076Z,44.57
2023-04-09T02:28:26.327Z,41.67
2023-04-09T02:30:56.051Z,44.93
2023-04-09T02:33:24.182Z,44.70
2023-04-09T02:35:52.303Z,42.10
2023-04-09T02:38:20.701Z,44.90
2023-04-09T02:40:49.069Z,48.77
2023-04-09T02:43:17.204Z,48.17
2023-04-09T02:45:45.504Z,43.63
2023-04-09T02:48:15.012Z,46.33
2023-04-09T02:50:43.354Z,46.97
2023-04-09T02:53:11.533Z,46.97
2023-04-09T02:55:39.637Z,46.10
2023-04-09T02:58:07.772Z,42.70
2023-04-09T03:00:35.925Z,47.33
2023-04-09T03:03:04.257Z,50.70
2023-04-09T03:05:33.863Z,43.73
2023-04-09T03:08:03.166Z,46.00
2023-04-09T03:10:31.286Z,47.10
2023-04-09T03:12:59.383Z,44.80
2023-04-09T03:15:27.600Z,49.40
2023-04-09T03:17:55.866Z,46.03
2023-04-09T03:20:24.188Z,46.80
2023-04-09T03:22:53.655Z,56.37
2023-04-09T03:25:22.014Z,54.43
2023-04-09T03:27:50.152Z,63.73
2023-04-09T03:30:18.287Z,65.00
2023-04-09T03:32:46.428Z,62.53
2023-04-09T03:35:14.732Z,66.10
2023-04-09T03:37:42.856Z,75.97
2023-04-09T03:40:14.297Z,71.50
2023-04-09T03:42:44.518Z,79.63
2023-04-09T03:45:12.860Z,82.10
2023-04-09T03:47:41.161Z,83.73
2023-04-09T03:50:10.395Z,87.20
2023-04-09T03:52:38.486Z,86.23
2023-04-09T03:55:08.126Z,86.93
2023-04-09T03:57:37.647Z,85.30
2023-04-09T04:00:07.890Z,83.80
2023-04-09T04:02:36.189Z,79.77
2023-04-09T04:05:04.540Z,77.93
2023-04-09T04:07:34.224Z,74.47
2023-04-09T04:10:02.338Z,72.43
2023-04-09T04:12:32.733Z,71.53
2023-04-09T04:15:02.525Z,68.67
2023-04-09T04:17:30.872Z,73.43
2023-04-09T04:19:58.988Z,67.50
2023-04-09T04:22:27.287Z,70.43
2023-04-09T04:24:55.437Z,67.60
2023-04-09T04:27:23.792Z,68.60
2023-04-09T04:29:51.879Z,63.07
2023-04-09T04:32:21.471Z,65.80
2023-04-09T04:34:50.937Z,60.40
2023-04-09T04:37:19.068Z,61.97
2023-04-09T04:39:47.273Z,61.70
2023-04-09T04:42:15.357Z,57.30
2023-04-09T04:44:43.697Z,58.47
2023-04-09T04:47:11.902Z,57.47
2023-04-09T04:49:41.689Z,52.33
2023-04-09T04:52:09.883Z,56.90
2023-04-09T04:54:38.292Z,52.27
2023-04-09T04:57:06.496Z,53.57
2023-04-09T04:59:38.589Z,53.30
2023-04-09T05:02:06.907Z,54.90
2023-04-09T05:04:35.251Z,50.90
2023-04-09T05:07:04.939Z,51.87
2023-04-09T05:09:33.121Z,49.80
2023-04-09T05:12:01.589Z,50.13
2023-04-09T05:14:29.879Z,50.57
2023-04-09T05:16:58.290Z,48.30
2023-04-09T05:19:26.530Z,48.87
2023-04-09T05:21:54.786Z,47.57
2023-04-09T05:24:24.485Z,47.93
2023-04-09T05:26:52.799Z,46.60
2023-04-09T05:29:21.114Z,49.37
2023-04-09T05:31:49.333Z,51.00
2023-04-09T05:34:17.458Z,45.90
2023-04-09T05:36:46.066Z,47.33
2023-04-09T05:39:14.156Z,46.70
2023-04-09T05:41:44.816Z,44.37
2023-04-09T05:44:13.118Z,45.27
2023-04-09T05:46:41.316Z,45.83
2023-04-09T05:49:09.494Z,43.00
2023-04-09T05:51:37.627Z,44.97
2023-04-09T05:54:05.792Z,47.60
2023-04-09T05:56:33.916Z,43.27
2023-04-09T05:59:03.489Z,42.53
2023-04-09T06:01:31.707Z,45.73
2023-04-09T06:04:00.192Z,43.33
2023-04-09T06:06:28.758Z,43.33
2023-04-09T06:08:56.917Z,41.73
2023-04-09T06:11:26.016Z,39.83
2023-04-09T06:13:54.251Z,42.23
2023-04-09T06:16:24.293Z,40.83
2023-04-09T06:18:54.522Z,41.70
2023-04-09T06:21:22.936Z,41.40
2023-04-09T06:23:53.646Z,40.33
2023-04-09T06:26:22.204Z,43.13
2023-04-09T06:28:50.296Z,41.33
2023-04-09T06:31:18.679Z,39.60
2023-04-09T06:33:48.215Z,38.67
2023-04-09T06:36:16.341Z,39.83
2023-04-09T06:38:44.601Z,38.87
2023-04-09T06:41:12.841Z,39.73
2023-04-09T06:43:41.115Z,39.10
2023-04-09T06:46:09.583Z,37.17
2023-04-09T06:48:37.854Z,37.13
2023-04-09T06:51:08.590Z,34.37
2023-04-09T06:53:36.758Z,35.87
2023-04-09T06:56:06.168Z,34.17
2023-04-09T06:58:34.538Z,36.57
2023-04-09T07:01:02.774Z,39.20
2023-04-09T07:03:31.285Z,38.83
2023-04-09T07:05:59.678Z,35.77
2023-04-09T07:08:29.381Z,35.47
2023-04-09T07:10:57.570Z,31.63
2023-04-09T07:13:26.269Z,35.07
2023-04-09T07:15:54.458Z,35.13
2023-04-09T07:18:22.604Z,35.83
2023-04-09T07:20:50.952Z,35.33
2023-04-09T07:23:19.155Z,37.07
2023-04-09T07:25:48.721Z,35.80
2023-04-09T07:28:16.902Z,32.73
2023-04-09T07:30:46.228Z,31.43
2023-04-09T07:33:15.491Z,31.80
2023-04-09T07:35:43.594Z,31.93
2023-04-09T07:38:11.707Z,30.17
2023-04-09T07:40:39.963Z,31.10
2023-04-09T07:43:09.515Z,29.33
2023-04-09T07:45:37.654Z,29.07
2023-04-09T07:48:06.138Z,27.90
2023-04-09T07:50:34.281Z,30.33
2023-04-09T07:53:02.337Z,28.10
2023-04-09T07:55:30.391Z,28.90
2023-04-09T07:57:58.763Z,29.67
2023-04-09T08:00:28.326Z,27.27
2023-04-09T08:02:57.436Z,27.77
2023-04-09T08:05:25.897Z,28.47
2023-04-09T08:07:54.224Z,27.30
2023-04-09T08:10:22.400Z,27.13
2023-04-09T08:12:50.801Z,25.33
2023-04-09T08:15:19.147Z,28.43
2023-04-09T08:17:48.715Z,29.17
2023-04-09T08:20:17.582Z,25.70
2023-04-09T08:22:45.721Z,26.97
2023-04-09T08:25:13.948Z,25.57
2023-04-09T08:27:42.073Z,24.67
2023-04-09T08:30:11.925Z,24.83
2023-04-09T08:32:40.112Z,23.63
2023-04-09T08:35:11.061Z,23.93
2023-04-09T08:37:39.625Z,24.30
2023-04-09T08:40:10.642Z,23.83
2023-04-09T08:42:45.833Z,22.37
2023-04-09T08:45:14.874Z,24.60
2023-04-09T08:47:46.465Z,24.27
2023-04-09T08:50:16.445Z,23.70
2023-04-09T08:52:47.670Z,26.87
2023-04-09T08:55:15.872Z,24.47
2023-04-09T08:57:44.392Z,25.53
2023-04-09T09:00:14.272Z,23.23
2023-04-09T09:03:04.188Z,22.63
2023-04-09T09:05:42.709Z,26.53
2023-04-09T09:08:13.007Z,24.77
2023-04-09T09:10:43.825Z,25.80
2023-04-09T09:13:21.198Z,24.10
2023-04-09T09:15:54.012Z,24.80
2023-04-09T09:18:25.348Z,27.07
2023-04-09T09:21:11.376Z,25.50
2023-04-09T09:23:39.501Z,24.80
2023-04-09T09:26:14.519Z,23.70
2023-04-09T09:28:43.182Z,24.73
2023-04-09T09:31:12.487Z,23.23
2023-04-09T09:33:41.248Z,22.70
2023-04-09T09:36:11.264Z,22.87
2023-04-09T09:38:54.942Z,23.00
2023-04-09T09:41:24.883Z,24.03
2023-04-09T09:43:53.290Z,23.87
2023-04-09T09:46:23.391Z,21.97
2023-04-09T09:48:51.765Z,22.37
2023-04-09T09:51:28.313Z,22.10
2023-04-09T09:53:58.189Z,22.97
2023-04-09T09:56:35.679Z,21.43
2023-04-09T09:59:08.671Z,20.87
2023-04-09T10:01:38.979Z,22.97
2023-04-09T10:04:13.586Z,20.90
2023-04-09T10:06:46.156Z,21.20
2023-04-09T10:09:14.849Z,21.17
2023-04-09T10:11:45.429Z,22.83
2023-04-09T10:14:14.694Z,22.63
2023-04-09T10:16:43.215Z,22.27
2023-04-09T10:19:14.097Z,19.67
2023-04-09T10:21:54.684Z,22.27
2023-04-09T10:24:23.950Z,18.80
2023-04-09T10:26:56.135Z,21.93
2023-04-09T10:29:29.965Z,19.13
2023-04-09T10:32:07.439Z,20.13
2023-04-09T10:34:40.294Z,19.00
2023-04-09T10:37:15.397Z,17.87
2023-04-09T10:39:48.353Z,17.70
2023-04-09T10:42:21.946Z,17.50
2023-04-09T10:45:07.435Z,18.07
2023-04-09T10:47:38.125Z,17.17
2023-04-09T10:50:21.261Z,21.27
2023-04-09T10:52:55.301Z,17.80
2023-04-09T10:55:37.241Z,15.40
2023-04-09T10:58:09.034Z,15.67
2023-04-09T11:00:40.875Z,16.33
2023-04-09T11:03:27.398Z,15.70
2023-04-09T11:06:01.992Z,16.77
2023-04-09T11:08:33.988Z,17.07
2023-04-09T11:11:03.567Z,15.23
2023-04-09T11:13:34.053Z,14.37
2023-04-09T11:16:04.074Z,16.17
2023-04-09T11:18:34.480Z,14.97
2023-04-09T11:21:04.428Z,13.93
2023-04-09T11:23:34.697Z,15.43
2023-04-09T11:26:03.021Z,17.17
2023-04-09T11:28:31.175Z,16.83
2023-04-09T11:30:59.292Z,19.27
2023-04-09T11:33:34.323Z,17.87
2023-04-09T11:36:06.046Z,18.73
2023-04-09T11:38:37.631Z,18.40
2023-04-09T11:41:06.061Z,19.50
2023-04-09T11:43:37.306Z,20.50
2023-04-09T11:46:07.830Z,19.87
2023-04-09T11:48:36.604Z,18.23
2023-04-09T11:51:05.397Z,18.00
2023-04-09T11:53:38.404Z,18.90
2023-04-09T11:56:07.170Z,19.95
2023-04-09T11:58:36.485Z,18.75
2023-04-09T12:01:04.756Z,18.60
2023-04-09T12:03:34.040Z,18.07
2023-04-09T12:06:04.004Z,17.20
2023-04-09T12:08:34.577Z,22.75
2023-04-09T12:11:11.937Z,20.53
2023-04-09T12:13:43.351Z,18.10
2023-04-09T12:16:12.240Z,18.27
2023-04-09T12:18:40.613Z,18.80
2023-04-09T12:21:08.818Z,18.67
2023-04-09T12:23:37.111Z,18.92
2023-04-09T12:26:05.709Z,18.57
2023-04-09T12:28:35.462Z,19.50
2023-04-09T12:31:03.792Z,19.75
2023-04-09T12:33:32.227Z,20.40
2023-04-09T12:36:00.580Z,21.00
2023-04-09T12:38:29.009Z,17.88
2023-04-09T12:40:57.212Z,18.10
2023-04-09T12:43:25.351Z,17.60
2023-04-09T12:45:54.972Z,18.42
2023-04-09T12:48:23.127Z,18.08
2023-04-09T12:50:51.588Z,17.38
2023-04-09T12:53:19.748Z,19.05
2023-04-09T12:55:47.853Z,18.88
2023-04-09T12:58:15.988Z,17.67
2023-04-09T13:00:44.708Z,18.95
2023-04-09T13:03:16.518Z,17.50
2023-04-09T13:05:44.858Z,17.80
2023-04-09T13:08:12.978Z,17.17
2023-04-09T13:10:41.317Z,16.93
2023-04-09T13:13:12.168Z,18.03
2023-04-09T13:15:43.160Z,17.13
2023-04-09T13:18:13.424Z,17.13
2023-04-09T13:20:41.793Z,17.33
2023-04-09T13:23:09.897Z,17.00
2023-04-09T13:25:38.188Z,19.08
2023-04-09T13:28:06.439Z,17.58
2023-04-09T13:30:35.603Z,16.50
2023-04-09T13:33:04.021Z,16.83
2023-04-09T13:35:33.684Z,17.80
2023-04-09T13:38:01.962Z,16.27
2023-04-09T13:40:30.357Z,17.15
2023-04-09T13:42:58.522Z,17.20
2023-04-09T13:45:26.662Z,16.65
2023-04-09T13:47:55.148Z,17.55
2023-04-09T13:50:23.442Z,18.17
2023-04-09T13:52:52.966Z,17.47
2023-04-09T13:55:21.262Z,15.57
2023-04-09T13:57:49.447Z,15.35
2023-04-09T14:00:17.786Z,15.98
2023-04-09T14:02:46.564Z,14.82
2023-04-09T14:05:14.781Z,15.90
2023-04-09T14:07:42.949Z,15.65
2023-04-09T14:10:12.796Z,15.52
2023-04-09T14:12:40.949Z,14.82
2023-04-09T14:15:10.326Z,14.68
2023-04-09T14:17:38.633Z,14.50
2023-04-09T14:20:08.575Z,16.13
2023-04-09T14:22:36.999Z,15.00
2023-04-09T14:25:06.524Z,13.25
2023-04-09T14:27:36.444Z,13.93
2023-04-09T14:30:05.429Z,14.32
2023-04-09T14:32:33.628Z,13.98
2023-04-09T14:35:01.982Z,13.50
2023-04-09T14:37:30.640Z,11.70
2023-04-09T14:39:58.922Z,12.05
2023-04-09T14:42:27.083Z,13.05
2023-04-09T14:44:56.556Z,12.45
2023-04-09T14:47:24.836Z,11.25
2023-04-09T14:49:53.052Z,12.18
2023-04-09T14:52:21.763Z,13.02
2023-04-09T14:54:49.876Z,12.40
2023-04-09T14:57:17.996Z,14.13
2023-04-09T14:59:46.143Z,12.27
2023-04-09T15:02:16.311Z,14.52
2023-04-09T15:04:44.737Z,10.70
2023-04-09T15:07:13.048Z,11.05
2023-04-09T15:09:41.556Z,11.88
2023-04-09T15:12:09.944Z,13.02
2023-04-09T15:14:38.171Z,11.40
2023-04-09T15:17:06.529Z,11.23
2023-04-09T15:19:36.343Z,11.23
2023-04-09T15:22:04.457Z,10.65
2023-04-09T15:24:32.689Z,10.97
2023-04-09T15:27:01.193Z,10.48
2023-04-09T15:29:29.327Z,10.27
2023-04-09T15:31:57.551Z,11.57
2023-04-09T15:34:26.112Z,10.27
2023-04-09T15:36:55.895Z,9.55
2023-04-09T15:39:24.655Z,9.30
2023-04-09T15:41:52.874Z,10.25
2023-04-09T15:44:21.106Z,9.35
2023-04-09T15:46:49.282Z,8.43
2023-04-09T15:49:17.682Z,8.38
2023-04-09T15:51:45.810Z,7.57
2023-04-09T15:54:15.514Z,7.87
2023-04-09T15:56:43.843Z,7.45
2023-04-09T15:59:12.092Z,6.53
2023-04-09T16:01:40.894Z,6.97
2023-04-09T16:04:09.336Z,5.95
2023-04-09T16:06:39.272Z,6.47
2023-04-09T16:09:07.527Z,7.90
2023-04-09T16:11:37.466Z,6.90
2023-04-09T16:14:05.763Z,6.60
2023-04-09T16:16:34.005Z,6.28
2023-04-09T16:19:02.296Z,7.03
2023-04-09T16:21:30.446Z,6.70
2023-04-09T16:23:58.679Z,6.93
2023-04-09T16:26:26.933Z,7.85
2023-04-09T16:29:00.034Z,9.07
2023-04-09T16:31:28.201Z,9.38
2023-04-09T16:33:56.377Z,10.00
2023-04-09T16:36:24.542Z,8.77
2023-04-09T16:38:52.976Z,9.80
2023-04-09T16:41:21.375Z,10.10
2023-04-09T16:43:51.068Z,10.33
2023-04-09T16:46:20.716Z,10.30
2023-04-09T16:48:49.057Z,9.50
2023-04-09T16:51:17.620Z,10.07
2023-04-09T16:53:45.805Z,10.07
2023-04-09T16:56:13.948Z,11.33
2023-04-09T16:58:41.992Z,12.17
2023-04-09T17:01:10.571Z,10.77
2023-04-09T17:03:40.176Z,11.90
2023-04-09T17:06:08.575Z,11.80
2023-04-09T17:08:37.031Z,11.70
2023-04-09T17:11:05.523Z,12.20
2023-04-09T17:13:36.133Z,13.33
2023-04-09T17:16:04.708Z,12.40
2023-04-09T17:18:32.804Z,12.07
2023-04-09T17:21:02.726Z,12.53
2023-04-09T17:23:31.074Z,13.50
2023-04-09T17:26:01.175Z,12.77
2023-04-09T17:28:29.423Z,13.13
2023-04-09T17:30:57.543Z,12.90
2023-04-09T17:33:25.996Z,12.97
2023-04-09T17:35:54.347Z,12.93
2023-04-09T17:38:25.105Z,13.10
2023-04-09T17:40:54.867Z,12.80
2023-04-09T17:43:23.299Z,15.40
2023-04-09T17:45:51.414Z,14.53
2023-04-09T17:48:19.692Z,14.03
2023-04-09T17:50:47.786Z,15.97
2023-04-09T17:53:15.879Z,17.33
2023-04-09T17:55:50.712Z,15.10
2023-04-09T17:58:18.970Z,15.10
2023-04-09T18:00:47.120Z,15.23
2023-04-09T18:03:15.642Z,15.07
2023-04-09T18:05:44.309Z,18.77
2023-04-09T18:08:12.719Z,15.10
2023-04-09T18:10:40.844Z,15.43
2023-04-09T18:13:10.313Z,15.43
2023-04-09T18:15:38.652Z,14.83
2023-04-09T18:18:06.760Z,19.87
2023-04-09T18:20:34.852Z,17.30
2023-04-09T18:23:02.946Z,19.70
2023-04-09T18:25:31.057Z,18.07
2023-04-09T18:27:59.311Z,20.13
2023-04-09T18:30:28.758Z,18.87
2023-04-09T18:32:57.117Z,20.60
2023-04-09T18:35:25.347Z,21.57
2023-04-09T18:37:53.505Z,21.80
2023-04-09T18:40:21.862Z,25.23
2023-04-09T18:42:52.671Z,23.40
2023-04-09T18:45:21.047Z,27.27
2023-04-09T18:47:50.513Z,26.13
2023-04-09T18:50:18.907Z,23.60
2023-04-09T18:52:47.181Z,21.67
2023-04-09T18:55:16.195Z,24.20
2023-04-09T18:57:44.876Z,25.77
2023-04-09T19:00:14.435Z,25.53
2023-04-09T19:02:42.657Z,23.50
2023-04-09T19:05:12.761Z,22.50
2023-04-09T19:07:40.998Z,22.07
2023-04-09T19:10:10.125Z,20.87
2023-04-09T19:12:39.253Z,21.87
2023-04-09T19:15:08.803Z,19.83
2023-04-09T19:17:36.893Z,20.87
2023-04-09T19:20:05.828Z,20.70
2023-04-09T19:22:35.239Z,20.43
2023-04-09T19:25:03.387Z,21.10
2023-04-09T19:27:31.623Z,22.47
2023-04-09T19:30:01.009Z,24.77
2023-04-09T19:32:29.161Z,24.63
2023-04-09T19:34:57.262Z,21.33
2023-04-09T19:37:27.867Z,22.73
2023-04-09T19:40:01.163Z,23.00
2023-04-09T19:42:29.535Z,23.00
2023-04-09T19:44:57.578Z,25.57
2023-04-09T19:47:25.829Z,24.13
2023-04-09T19:49:54.000Z,29.70
2023-04-09T19:52:22.704Z,26.93
2023-04-09T19:54:56.249Z,28.23
2023-04-09T19:57:26.338Z,27.90
2023-04-09T19:59:55.070Z,27.87
2023-04-09T20:02:23.698Z,31.10
2023-04-09T20:04:52.263Z,27.23
2023-04-09T20:07:20.475Z,28.43
2023-04-09T20:09:48.638Z,28.00
2023-04-09T20:12:16.773Z,26.30
2023-04-09T20:14:47.005Z,26.23
2023-04-09T20:17:15.311Z,26.33
2023-04-09T20:19:43.585Z,26.87
2023-04-09T20:22:11.642Z,30.90
2023-04-09T20:24:39.944Z,28.33
2023-04-09T20:27:08.025Z,29.27
2023-04-09T20:29:36.198Z,27.57
2023-04-09T20:32:06.363Z,28.53
2023-04-09T20:34:34.755Z,27.57
2023-04-09T20:37:05.481Z,30.53
2023-04-09T20:39:33.707Z,30.67
2023-04-09T20:42:01.843Z,27.87
2023-04-09T20:44:30.313Z,28.40
2023-04-09T20:46:58.385Z,31.30
2023-04-09T20:49:27.810Z,29.97
2023-04-09T20:51:55.898Z,29.47
2023-04-09T20:54:23.933Z,31.33
2023-04-09T20:56:52.177Z,34.60
2023-04-09T20:59:20.358Z,38.33
2023-04-09T21:01:48.780Z,34.90
2023-04-09T21:04:17.070Z,37.87
2023-04-09T21:06:47.647Z,38.17
2023-04-09T21:09:15.981Z,41.30
2023-04-09T21:11:44.061Z,45.10
2023-04-09T21:14:13.491Z,42.60
2023-04-09T21:16:41.868Z,41.83
2023-04-09T21:19:09.982Z,41.63
2023-04-09T21:21:38.955Z,43.57
2023-04-09T21:24:08.374Z,41.13
2023-04-09T21:26:49.283Z,38.53
2023-04-09T21:29:17.878Z,41.83
2023-04-09T21:31:46.002Z,38.43
2023-04-09T21:34:14.035Z,42.73
2023-04-09T21:36:42.225Z,42.20
2023-04-09T21:39:11.735Z,41.47
2023-04-09T21:41:39.989Z,40.73
2023-04-09T21:44:08.916Z,37.90
2023-04-09T21:46:38.129Z,39.43
2023-04-09T21:49:07.053Z,41.07
2023-04-09T21:51:35.184Z,41.17
2023-04-09T21:54:05.199Z,39.27
2023-04-09T21:56:43.682Z,39.83
2023-04-09T21:59:11.788Z,41.87
2023-04-09T22:01:40.014Z,37.40
2023-04-09T22:04:08.378Z,37.77
2023-04-09T22:06:36.636Z,42.03
2023-04-09T22:09:05.240Z,43.43
2023-04-09T22:11:34.383Z,38.57
2023-04-09T22:14:03.927Z,41.80
2023-04-09T22:16:32.114Z,39.97
2023-04-09T22:19:00.460Z,42.70
2023-04-09T22:21:28.614Z,41.57
2023-04-09T22:23:56.793Z,39.97
2023-04-09T22:26:24.941Z,38.97
2023-04-09T22:28:53.356Z,42.30
2023-04-09T22:31:23.181Z,41.83
2023-04-09T22:33:51.501Z,38.37
2023-04-09T22:36:19.849Z,41.17
2023-04-09T22:38:47.949Z,40.60
2023-04-09T22:41:17.477Z,40.57
2023-04-09T22:43:45.616Z,39.87
2023-04-09T22:46:13.723Z,38.83
2023-04-09T22:48:44.924Z,37.47
2023-04-09T22:51:14.097Z,40.10
2023-04-09T22:53:42.235Z,41.33
2023-04-09T22:56:10.944Z,39.47
2023-04-09T22:58:39.554Z,40.53
2023-04-09T23:01:08.576Z,39.63
2023-04-09T23:03:36.749Z,38.53
2023-04-09T23:06:07.151Z,38.97
2023-04-09T23:08:35.253Z,38.87
2023-04-09T23:11:05.186Z,39.60
2023-04-09T23:13:33.486Z,40.33
2023-04-09T23:16:01.642Z,40.80
2023-04-09T23:18:29.794Z,38.40
2023-04-09T23:20:57.936Z,36.87
2023-04-09T23:23:27.473Z,38.47
2023-04-09T23:25:55.761Z,36.50
2023-04-09T23:28:23.906Z,37.03
2023-04-09T23:30:52.137Z,39.60
2023-04-09T23:33:20.920Z,38.73
2023-04-09T23:35:49.119Z,39.37
2023-04-09T23:38:17.422Z,40.07
2023-04-09T23:40:47.865Z,39.23
2023-04-09T23:43:16.069Z,36.43
2023-04-09T23:45:44.845Z,41.77
2023-04-09T23:48:13.427Z,39.20
2023-04-09T23:50:43.001Z,41.27
2023-04-09T23:53:11.474Z,39.87
2023-04-09T23:55:41.283Z,40.77
2023-04-09T23:58:10.854Z,40.23
